Time;durP1;ratioP1;P1;durP2;ratioP2;P2;SDS_P1;SDS_P2;PMS_P1;PMS_P2;Temp;Humidity;BMP_temperature;BMP_pressure;BME280_temperature;BME280_humidity;BME280_pressure;Samples;Min_cycle;Max_cycle;Signal;HPM_P1;HPM_P2
2022/09/21 00:01:23;;;;;;;10.05;4.40;;;;;;;9.93;100.00;101293.91;4890106;29;20045;-80
2022/09/21 00:03:58;;;;;;;10.38;4.45;;;;;;;9.88;100.00;101299.34;4884199;29;20079;-79
2022/09/21 00:06:29;;;;;;;7.82;4.60;;;;;;;9.83;100.00;101296.81;4897707;29;20056;-76
2022/09/21 00:08:56;;;;;;;8.18;4.45;;;;;;;9.83;100.00;101301.25;4889371;29;20341;-78
2022/09/21 00:11:28;;;;;;;6.55;4.43;;;;;;;9.80;100.00;101303.97;4890971;29;20570;-79
2022/09/21 00:13:59;;;;;;;5.40;3.90;;;;;;;9.80;100.00;101301.34;4893367;29;20052;-79
2022/09/21 00:16:27;;;;;;;6.28;4.00;;;;;;;9.84;100.00;101308.28;4890344;29;20071;-75
2022/09/21 00:18:54;;;;;;;5.78;4.00;;;;;;;9.69;100.00;101290.22;4891374;29;20053;-73
2022/09/21 00:21:21;;;;;;;6.07;4.30;;;;;;;9.73;100.00;101298.03;4899672;29;20072;-78
2022/09/21 00:23:48;;;;;;;7.82;3.90;;;;;;;9.75;100.00;101298.84;4898367;29;20189;-76
2022/09/21 00:26:22;;;;;;;5.68;4.00;;;;;;;9.75;100.00;101313.84;4899238;29;20152;-74
2022/09/21 00:28:54;;;;;;;7.00;4.32;;;;;;;9.66;100.00;101303.50;4898407;29;20068;-78
2022/09/21 00:31:21;;;;;;;7.78;4.78;;;;;;;9.56;100.00;101291.47;4897173;29;20100;-77
2022/09/21 00:33:49;;;;;;;7.00;4.82;;;;;;;9.55;100.00;101290.63;4900996;29;20057;-79
2022/09/21 00:36:18;;;;;;;6.72;4.65;;;;;;;9.61;100.00;101313.34;4896155;29;20059;-79
2022/09/21 00:38:49;;;;;;;6.88;4.88;;;;;;;9.47;100.00;101296.09;4892531;29;20298;-81
2022/09/21 00:41:16;;;;;;;7.40;5.05;;;;;;;9.52;100.00;101311.84;4892811;29;20075;-76
2022/09/21 00:44:07;;;;;;;8.55;5.55;;;;;;;9.28;100.00;101288.75;4893389;29;20052;-81
2022/09/21 00:46:37;;;;;;;6.72;5.00;;;;;;;9.31;100.00;101310.66;4891347;29;20485;-77
2022/09/21 00:49:04;;;;;;;9.05;5.80;;;;;;;9.27;100.00;101314.31;4890935;29;20045;-76
2022/09/21 00:51:31;;;;;;;8.10;5.38;;;;;;;9.28;100.00;101318.69;4892105;29;20136;-77
2022/09/21 00:54:03;;;;;;;7.25;5.13;;;;;;;9.24;100.00;101322.31;4890847;29;20486;-79
2022/09/21 00:56:29;;;;;;;7.70;5.80;;;;;;;9.14;100.00;101307.59;4892391;29;20060;-78
2022/09/21 00:58:56;;;;;;;7.55;5.55;;;;;;;9.12;100.00;101304.16;4888444;29;20565;-80
2022/09/21 01:01:23;;;;;;;8.27;5.70;;;;;;;9.10;100.00;101306.81;4891696;29;20048;-79
2022/09/21 01:03:52;;;;;;;9.48;6.15;;;;;;;9.05;100.00;101306.06;4888065;29;20414;-82
2022/09/21 01:06:20;;;;;;;11.32;6.45;;;;;;;9.04;100.00;101320.19;4888938;29;20056;-79
2022/09/21 01:08:52;;;;;;;7.47;6.07;;;;;;;8.96;100.00;101318.66;4891831;29;20041;-77
2022/09/21 01:11:51;;;;;;;11.48;6.30;;;;;;;8.86;100.00;101315.38;4886792;29;20048;-75
2022/09/21 01:14:34;;;;;;;10.48;6.90;;;;;;;8.80;100.00;101320.81;4890058;29;20055;-80
2022/09/21 01:17:13;;;;;;;9.50;6.60;;;;;;;8.77;100.00;101324.41;4887684;29;20519;-79
2022/09/21 01:20:01;;;;;;;13.27;6.72;;;;;;;8.76;100.00;101332.38;4892875;29;20068;-77
2022/09/21 01:23:05;;;;;;;9.85;6.55;;;;;;;8.75;100.00;101328.84;4891539;29;20112;-77
2022/09/21 01:25:58;;;;;;;10.30;7.28;;;;;;;8.71;100.00;101323.69;4888577;29;20108;-75
2022/09/21 01:28:47;;;;;;;9.38;7.68;;;;;;;8.59;100.00;101316.94;4890485;29;20064;-77
2022/09/21 01:31:23;;;;;;;9.70;6.97;;;;;;;8.66;100.00;101333.47;4884275;29;20487;-78
2022/09/21 01:34:00;;;;;;;8.65;5.97;;;;;;;8.62;100.00;101316.84;4889188;29;20060;-76
2022/09/21 01:36:30;;;;;;;9.48;6.60;;;;;;;8.67;100.00;101330.78;4895528;29;20091;-79
2022/09/21 01:39:05;;;;;;;10.00;7.00;;;;;;;8.74;100.00;101335.03;4891603;29;20040;-72
2022/09/21 01:41:35;;;;;;;9.40;6.35;;;;;;;8.74;100.00;101335.03;4885667;29;20056;-80
2022/09/21 01:44:07;;;;;;;12.65;6.53;;;;;;;8.56;100.00;101317.00;4891943;29;20048;-79
2022/09/21 01:46:36;;;;;;;11.07;6.78;;;;;;;8.55;100.00;101328.47;4886973;29;20060;-79
2022/09/21 01:49:09;;;;;;;9.27;6.25;;;;;;;8.55;100.00;101339.00;4888632;29;20380;-78
2022/09/21 01:51:42;;;;;;;9.23;6.60;;;;;;;8.52;100.00;101327.66;4886884;29;20049;-78
2022/09/21 01:54:20;;;;;;;8.20;6.40;;;;;;;8.38;100.00;101310.38;4889669;29;20049;-78
2022/09/21 01:56:52;;;;;;;12.63;7.05;;;;;;;8.42;100.00;101332.28;4888995;29;20052;-78
2022/09/21 01:59:55;;;;;;;12.02;6.88;;;;;;;8.48;100.00;101334.81;4889994;29;20056;-78
2022/09/21 02:02:41;;;;;;;7.43;6.00;;;;;;;8.50;100.00;101326.84;4882194;29;20052;-77
2022/09/21 02:05:11;;;;;;;12.13;6.30;;;;;;;8.46;100.00;101318.13;4893664;29;20417;-77
2022/09/21 02:07:38;;;;;;;11.07;6.17;;;;;;;8.43;100.00;101312.91;4898752;29;20059;-80
2022/09/21 02:10:09;;;;;;;8.98;5.65;;;;;;;8.44;100.00;101314.66;4890373;29;21099;-79
2022/09/21 02:12:37;;;;;;;9.07;5.85;;;;;;;8.48;100.00;101336.56;4888618;29;20488;-76
2022/09/21 02:15:04;;;;;;;11.07;6.60;;;;;;;8.50;100.00;101325.03;4888656;29;20144;-71
2022/09/21 02:17:39;;;;;;;10.68;6.93;;;;;;;8.46;100.00;101320.78;4891118;29;20074;-77
2022/09/21 02:20:29;;;;;;;8.82;5.82;;;;;;;8.44;100.00;101330.50;4889126;29;20058;-77
2022/09/21 02:23:14;;;;;;;7.97;5.90;;;;;;;8.41;100.00;101322.63;4886973;29;20067;-72
2022/09/21 02:25:56;;;;;;;7.45;5.95;;;;;;;8.42;100.00;101321.75;4893565;29;20128;-74
2022/09/21 02:28:27;;;;;;;8.93;6.80;;;;;;;8.33;100.00;101321.97;4885228;29;20503;-73
2022/09/21 02:31:14;;;;;;;7.35;5.60;;;;;;;8.24;100.00;101332.69;4895005;29;20049;-72
2022/09/21 02:33:49;;;;;;;8.60;6.15;;;;;;;8.15;100.00;101325.84;4888835;29;20053;-73
2022/09/21 02:36:38;;;;;;;7.25;6.00;;;;;;;8.05;100.00;101325.16;4894615;29;20048;-74
2022/09/21 02:39:12;;;;;;;11.50;6.57;;;;;;;8.03;100.00;101324.31;4892091;29;20506;-74
2022/09/21 02:42:04;;;;;;;7.65;6.25;;;;;;;7.95;100.00;101325.41;4890377;29;20080;-74
2022/09/21 02:44:37;;;;;;;10.85;6.53;;;;;;;7.93;100.00;101327.19;4897312;29;20088;-74
2022/09/21 02:47:48;;;;;;;9.73;6.18;;;;;;;7.88;100.00;101316.75;4892829;29;20044;-73
2022/09/21 02:50:22;;;;;;;8.82;6.90;;;;;;;7.94;100.00;101319.25;4873651;29;20227;-74
2022/09/21 02:52:52;;;;;;;9.27;6.93;;;;;;;7.99;100.00;101321.81;4877241;29;20067;-75
2022/09/21 02:55:19;;;;;;;10.57;7.00;;;;;;;8.05;100.00;101322.53;4869810;29;20057;-75
2022/09/21 02:57:47;;;;;;;9.85;7.93;;;;;;;8.03;100.00;101329.59;4896080;29;20135;-74
2022/09/21 03:00:16;;;;;;;10.63;7.88;;;;;;;8.01;100.00;101328.78;4894148;29;20124;-76
2022/09/21 03:02:44;;;;;;;16.55;7.75;;;;;;;8.00;100.00;101327.06;4899558;29;20048;-75
2022/09/21 03:05:12;;;;;;;9.93;7.38;;;;;;;7.99;100.00;101325.31;4896628;29;20405;-78
2022/09/21 03:07:40;;;;;;;11.77;7.43;;;;;;;7.94;100.00;101318.38;4896345;29;20052;-77
2022/09/21 03:10:08;;;;;;;14.52;7.90;;;;;;;7.76;100.00;101295.91;4894424;29;20164;-76
2022/09/21 03:12:35;;;;;;;11.38;8.55;;;;;;;7.87;100.00;101322.06;4892922;29;20455;-73
2022/09/21 03:15:03;;;;;;;13.15;9.23;;;;;;;7.83;100.00;101320.41;4895088;29;20044;-75
2022/09/21 03:17:30;;;;;;;11.27;8.65;;;;;;;7.89;100.00;101328.16;4898333;29;20662;-75
2022/09/21 03:19:56;;;;;;;11.25;8.15;;;;;;;7.83;100.00;101326.53;4892844;29;20164;-76
2022/09/21 03:22:23;;;;;;;12.30;8.68;;;;;;;7.84;100.00;101328.28;4891309;29;20120;-79
2022/09/21 03:24:50;;;;;;;18.00;8.70;;;;;;;7.89;100.00;101341.34;4894253;29;20071;-73
2022/09/21 03:27:19;;;;;;;10.95;8.45;;;;;;;7.67;100.00;101304.91;4895776;29;20155;-77
2022/09/21 03:29:46;;;;;;;12.20;8.93;;;;;;;7.79;100.00;101335.41;4890985;29;20053;-75
2022/09/21 03:32:13;;;;;;;9.90;8.40;;;;;;;7.81;100.00;101338.00;4892750;29;20059;-77
2022/09/21 03:34:40;;;;;;;10.65;8.38;;;;;;;7.86;100.00;101344.94;4895396;29;20047;-77
2022/09/21 03:37:08;;;;;;;13.63;9.20;;;;;;;7.83;100.00;101347.63;4891903;29;20055;-74
2022/09/21 03:39:35;;;;;;;14.52;8.65;;;;;;;7.81;100.00;101343.28;4897414;29;20052;-79
2022/09/21 03:42:03;;;;;;;10.55;8.52;;;;;;;7.78;100.00;101343.34;4890736;29;20047;-77
2022/09/21 03:44:29;;;;;;;13.18;8.18;;;;;;;7.81;100.00;101343.28;4897672;29;20127;-79
2022/09/21 03:46:57;;;;;;;12.48;8.18;;;;;;;7.77;100.00;101339.84;4894713;29;20519;-76
2022/09/21 03:49:24;;;;;;;13.95;8.45;;;;;;;7.75;100.00;101349.53;4900825;29;20048;-75
2022/09/21 03:51:50;;;;;;;14.07;9.13;;;;;;;7.68;100.00;101351.44;4897914;29;20550;-75
2022/09/21 03:54:17;;;;;;;14.82;9.55;;;;;;;7.62;100.00;101348.91;4893002;29;20527;-79
2022/09/21 03:56:43;;;;;;;14.15;9.30;;;;;;;7.58;100.00;101349.00;4889548;29;20131;-76
2022/09/21 03:59:10;;;;;;;14.30;9.50;;;;;;;7.56;100.00;101348.16;4889437;29;20472;-76
2022/09/21 04:01:40;;;;;;;12.52;9.32;;;;;;;7.52;100.00;101347.38;4888585;29;20048;-74
2022/09/21 04:04:06;;;;;;;12.60;8.50;;;;;;;7.53;100.00;101351.75;4899225;29;20104;-76
2022/09/21 04:06:33;;;;;;;14.18;9.32;;;;;;;7.62;100.00;101358.59;4894276;29;20077;-77
2022/09/21 04:09:01;;;;;;;11.55;9.02;;;;;;;7.39;100.00;101324.78;4893517;29;20487;-79
2022/09/21 04:11:30;;;;;;;11.65;8.07;;;;;;;7.30;100.00;101331.09;4893693;29;20411;-78
2022/09/21 04:13:56;;;;;;;12.02;9.10;;;;;;;7.42;100.00;101360.72;4895830;29;20505;-78
2022/09/21 04:16:24;;;;;;;11.55;8.43;;;;;;;7.37;100.00;101360.84;4895083;29;20049;-72
2022/09/21 04:18:50;;;;;;;11.18;8.30;;;;;;;7.33;100.00;101360.03;4894363;29;20096;-79
2022/09/21 04:21:18;;;;;;;12.10;8.57;;;;;;;7.27;100.00;101356.63;4892252;29;20048;-76
2022/09/21 04:23:44;;;;;;;10.70;8.68;;;;;;;7.24;100.00;101357.53;4894524;29;20049;-78
2022/09/21 04:26:29;;;;;;;14.45;9.40;;;;;;;7.21;100.00;101360.25;4890206;29;20056;-78
2022/09/21 04:28:56;;;;;;;13.95;9.20;;;;;;;7.13;100.00;101348.09;4883671;29;20079;-77
2022/09/21 04:31:24;;;;;;;11.75;8.90;;;;;;;7.08;100.00;101334.16;4889145;29;20044;-80
2022/09/21 04:33:52;;;;;;;14.95;9.23;;;;;;;7.22;100.00;101359.34;4889374;29;20048;-75
2022/09/21 04:36:20;;;;;;;12.13;8.60;;;;;;;7.15;100.00;101352.44;4891192;29;20072;-76
2022/09/21 04:38:47;;;;;;;12.25;9.20;;;;;;;7.02;100.00;101341.25;4896911;29;20052;-76
2022/09/21 04:41:14;;;;;;;12.77;9.43;;;;;;;7.13;100.00;101364.78;4892110;29;20071;-77
2022/09/21 04:43:42;;;;;;;14.50;9.00;;;;;;;7.10;100.00;101362.19;4887838;29;20136;-78
2022/09/21 04:46:11;;;;;;;12.30;9.63;;;;;;;7.12;100.00;101362.16;4885874;29;20059;-77
2022/09/21 04:48:39;;;;;;;12.05;9.20;;;;;;;7.24;100.00;101370.72;4895869;29;20056;-76
2022/09/21 04:51:09;;;;;;;12.88;9.32;;;;;;;7.26;100.00;101365.41;4893839;29;20091;-73
2022/09/21 04:53:37;;;;;;;15.35;8.77;;;;;;;7.17;100.00;101363.81;4889604;29;20056;-73
2022/09/21 04:56:06;;;;;;;12.02;8.75;;;;;;;7.08;100.00;101340.28;4902496;29;20108;-76
2022/09/21 04:58:33;;;;;;;14.77;9.88;;;;;;;7.02;100.00;101340.38;4893123;29;20112;-78
2022/09/21 05:01:00;;;;;;;14.23;10.20;;;;;;;7.02;100.00;101358.81;4901050;29;20060;-77
2022/09/21 05:03:26;;;;;;;11.43;9.10;;;;;;;6.90;100.00;101344.13;4900329;29;20503;-77
2022/09/21 05:05:55;;;;;;;18.50;9.63;;;;;;;7.06;100.00;101378.09;4903244;29;20056;-77
2022/09/21 05:11:17;;;;;;;14.57;9.70;;;;;;;6.85;100.00;101353.84;4891817;29;20069;-78
2022/09/21 05:13:44;;;;;;;13.13;9.35;;;;;;;6.97;100.00;101390.50;4890847;29;20048;-77
2022/09/21 05:16:11;;;;;;;14.90;10.20;;;;;;;6.97;100.00;101394.88;4885742;29;20055;-79
2022/09/21 05:18:37;;;;;;;13.90;9.02;;;;;;;6.94;100.00;101390.53;4892563;29;20063;-76
2022/09/21 05:21:05;;;;;;;16.80;10.35;;;;;;;6.90;100.00;101391.50;4891704;29;20063;-77
2022/09/21 05:23:32;;;;;;;13.38;9.73;;;;;;;6.78;100.00;101373.25;4894639;29;20525;-76
2022/09/21 05:25:59;;;;;;;12.80;9.57;;;;;;;6.86;100.00;101396.84;4889058;29;20066;-77
2022/09/21 05:28:26;;;;;;;13.35;9.52;;;;;;;6.81;100.00;101391.63;4885996;29;20407;-78
2022/09/21 05:31:25;;;;;;;13.80;9.65;;;;;;;6.85;100.00;101403.88;4891094;29;20425;-74
2022/09/21 05:34:07;;;;;;;15.10;8.95;;;;;;;6.88;100.00;101402.94;4868474;29;20209;-74
2022/09/21 05:36:43;;;;;;;14.27;9.95;;;;;;;6.73;100.00;101379.50;4889935;29;20053;-75
2022/09/21 05:39:10;;;;;;;15.82;9.57;;;;;;;6.81;100.00;101389.00;4888907;29;20079;-76
2022/09/21 05:41:37;;;;;;;16.02;9.60;;;;;;;6.92;100.00;101412.53;4894947;29;20059;-76
2022/09/21 05:44:04;;;;;;;16.75;10.68;;;;;;;6.88;100.00;101403.81;4886396;29;20101;-80
2022/09/21 05:46:47;;;;;;;13.48;9.68;;;;;;;6.89;100.00;101413.47;4892229;29;20059;-75
2022/09/21 05:49:48;;;;;;;13.25;9.85;;;;;;;7.02;100.00;101409.72;4887148;29;20139;-78
2022/09/21 05:52:42;;;;;;;12.93;8.85;;;;;;;7.13;100.00;101414.81;4879698;29;20133;-75
2022/09/21 05:55:33;;;;;;;12.45;8.82;;;;;;;6.99;100.00;101382.56;4886611;29;20088;-78
2022/09/21 05:58:18;;;;;;;15.15;9.18;;;;;;;7.16;100.00;101414.78;4890745;29;20147;-75
2022/09/21 06:01:23;;;;;;;14.30;8.43;;;;;;;7.07;100.00;101398.25;4889815;29;20105;-74
2022/09/21 06:03:51;;;;;;;16.95;8.80;;;;;;;7.40;100.00;101414.34;4867026;29;20178;-76
2022/09/21 06:06:18;;;;;;;11.48;7.95;;;;;;;7.44;100.00;101412.53;4890734;29;20513;-78
2022/09/21 06:08:45;;;;;;;11.52;8.10;;;;;;;7.49;100.00;101421.22;4893329;29;20060;-72
2022/09/21 06:11:12;;;;;;;11.02;8.20;;;;;;;7.49;100.00;101431.75;4888927;29;20041;-75
2022/09/21 06:13:42;;;;;;;11.30;8.18;;;;;;;7.41;100.00;101425.75;4890243;29;20135;-77
2022/09/21 06:16:09;;;;;;;10.52;7.97;;;;;;;7.48;100.00;101429.16;4891552;29;20472;-79
2022/09/21 06:18:40;;;;;;;10.38;7.70;;;;;;;7.54;100.00;101437.84;4892502;29;20410;-76
2022/09/21 06:21:07;;;;;;;13.48;7.35;;;;;;;7.58;100.00;101438.63;4891390;29;20135;-76
2022/09/21 06:23:34;;;;;;;13.80;7.57;;;;;;;7.59;100.00;101428.06;4888538;29;20091;-76
2022/09/21 06:26:01;;;;;;;9.70;7.57;;;;;;;7.59;100.00;101427.19;4888975;29;20795;-78
2022/09/21 06:28:28;;;;;;;11.45;7.28;;;;;;;7.68;100.00;101437.56;4887335;29;20079;-75
2022/09/21 06:30:56;;;;;;;10.25;7.30;;;;;;;7.74;100.00;101429.53;4891184;29;20058;-76
2022/09/21 06:33:24;;;;;;;9.60;6.78;;;;;;;7.92;100.00;101436.22;4887891;29;20170;-73
2022/09/21 06:35:59;;;;;;;12.88;7.57;;;;;;;7.83;100.00;101417.97;4887713;29;20056;-73
2022/09/21 06:38:27;;;;;;;8.93;7.03;;;;;;;8.06;100.00;101436.81;4887817;29;20108;-78
2022/09/21 06:40:59;;;;;;;13.15;7.18;;;;;;;8.18;100.00;101436.59;4888039;29;20048;-76
2022/09/21 06:43:25;;;;;;;12.15;6.72;;;;;;;8.31;100.00;101435.44;4886488;29;20055;-74
2022/09/21 06:45:54;;;;;;;10.15;6.97;;;;;;;8.56;100.00;101443.72;4888184;29;20457;-73
2022/09/21 06:48:21;;;;;;;8.60;5.88;;;;;;;8.83;100.00;101444.00;4889749;29;20063;-78
2022/09/21 06:50:48;;;;;;;10.15;6.35;;;;;;;9.09;100.00;101442.50;4889767;29;20074;-75
2022/09/21 06:53:15;;;;;;;10.15;6.25;;;;;;;9.43;100.00;101442.53;4890609;29;20037;-79
2022/09/21 06:55:41;;;;;;;10.25;5.85;;;;;;;9.78;100.00;101449.50;4889693;29;20537;-75
2022/09/21 06:58:08;;;;;;;8.85;5.13;;;;;;;10.04;98.67;101445.31;4887153;29;20057;-71
2022/09/21 07:00:35;;;;;;;8.30;5.55;;;;;;;10.25;95.30;101450.00;4889691;29;20060;-76
2022/09/21 07:03:02;;;;;;;9.98;5.53;;;;;;;10.46;93.99;101443.22;4885825;29;20131;-75
2022/09/21 07:05:28;;;;;;;7.28;5.03;;;;;;;10.73;91.69;101442.38;4892081;29;20266;-77
2022/09/21 07:07:57;;;;;;;6.07;4.82;;;;;;;10.87;89.72;101440.16;4889073;29;20135;-74
2022/09/21 07:10:25;;;;;;;7.63;4.90;;;;;;;11.00;87.98;101450.38;4889999;29;20076;-71
2022/09/21 07:12:51;;;;;;;8.63;4.80;;;;;;;11.01;87.70;101433.56;4885383;29;20047;-75
2022/09/21 07:15:20;;;;;;;9.07;4.72;;;;;;;11.19;85.95;101425.84;4886708;29;20040;-74
2022/09/21 07:17:46;;;;;;;8.75;4.32;;;;;;;11.62;85.89;101456.25;4885162;29;20136;-75
2022/09/21 07:20:17;;;;;;;6.45;3.90;;;;;;;11.97;82.28;101451.50;4884724;29;20068;-71
2022/09/21 07:22:45;;;;;;;11.25;5.57;;;;;;;12.28;80.49;101453.00;4889126;29;20095;-71
2022/09/21 07:25:12;;;;;;;7.63;4.50;;;;;;;12.55;79.01;101453.75;4886628;29;20049;-75
2022/09/21 07:27:39;;;;;;;6.82;4.20;;;;;;;12.64;79.19;101450.72;4886880;29;20048;-73
2022/09/21 07:30:07;;;;;;;7.75;4.05;;;;;;;12.89;77.99;101442.69;4888895;29;20434;-72
2022/09/21 07:32:35;;;;;;;8.15;4.30;;;;;;;12.87;75.54;101431.25;4888659;29;20156;-75
2022/09/21 07:35:02;;;;;;;9.23;4.38;;;;;;;13.15;73.53;101456.75;4889894;29;20140;-72
2022/09/21 07:37:30;;;;;;;6.68;3.60;;;;;;;13.02;74.48;101453.69;4888999;29;20052;-75
2022/09/21 07:39:57;;;;;;;6.38;3.90;;;;;;;13.17;75.19;101454.88;4886938;29;20052;-76
2022/09/21 07:42:24;;;;;;;8.20;4.00;;;;;;;13.43;73.96;101445.81;4889223;29;20056;-70
2022/09/21 07:44:52;;;;;;;7.13;4.00;;;;;;;13.62;72.23;101455.63;4891017;29;20131;-75
2022/09/21 07:47:30;;;;;;;8.70;3.75;;;;;;;13.83;70.70;101452.97;4892689;29;20055;-76
2022/09/21 07:49:56;;;;;;;5.47;3.38;;;;;;;13.81;69.41;101429.09;4879583;29;20052;-69
2022/09/21 07:52:23;;;;;;;6.28;3.28;;;;;;;13.83;71.02;101439.66;4887718;29;20052;-74
2022/09/21 07:54:50;;;;;;;7.60;3.55;;;;;;;13.91;70.73;101451.69;4887531;29;20052;-73
2022/09/21 08:00:02;;;;;;;6.78;3.95;;;;;;;14.00;69.67;101437.13;4892973;29;20080;-75
2022/09/21 08:02:29;;;;;;;8.00;3.92;;;;;;;13.90;70.78;101449.97;4890363;29;20064;-74
2022/09/21 08:04:56;;;;;;;7.68;3.47;;;;;;;13.71;71.41;101443.69;4888093;29;20052;-72
2022/09/21 08:07:22;;;;;;;8.43;3.78;;;;;;;13.58;71.02;101440.72;4892572;29;20064;-72
2022/09/21 08:09:50;;;;;;;7.70;3.30;;;;;;;13.54;70.77;101448.88;4881849;29;20057;-71
2022/09/21 08:12:19;;;;;;;5.38;3.45;;;;;;;13.51;71.13;101457.03;4897282;29;20147;-74
2022/09/21 08:14:46;;;;;;;5.95;3.60;;;;;;;13.47;71.65;101458.94;4890114;29;20527;-71
2022/09/21 08:17:13;;;;;;;6.40;3.70;;;;;;;13.44;72.45;101448.41;4892614;29;20135;-74
2022/09/21 08:19:40;;;;;;;4.97;3.17;;;;;;;13.41;72.69;101437.91;4885107;29;20067;-74
2022/09/21 08:22:07;;;;;;;7.47;3.78;;;;;;;13.79;71.78;101446.03;4886300;29;20407;-72
2022/09/21 08:24:34;;;;;;;5.38;3.28;;;;;;;14.05;70.69;101443.09;4885161;29;20053;-74
2022/09/21 08:27:00;;;;;;;5.65;2.78;;;;;;;14.53;69.67;101448.00;4886667;29;20052;-72
2022/09/21 08:29:29;;;;;;;6.53;2.70;;;;;;;14.93;66.14;101451.47;4888746;29;20056;-75
2022/09/21 08:31:55;;;;;;;3.88;2.80;;;;;;;15.05;65.46;101448.19;4890884;29;20048;-71
2022/09/21 08:34:22;;;;;;;5.70;3.03;;;;;;;14.72;65.05;101448.88;4888415;29;20112;-73
2022/09/21 08:36:49;;;;;;;6.35;2.97;;;;;;;14.27;66.94;101433.19;4890144;29;20139;-73
2022/09/21 08:39:20;;;;;;;5.47;3.13;;;;;;;14.03;68.55;101453.81;4879141;29;20056;-72
2022/09/21 08:41:47;;;;;;;6.00;3.35;;;;;;;13.61;70.44;101459.22;4887100;29;20044;-74
2022/09/21 08:44:25;;;;;;;5.22;2.97;;;;;;;13.41;72.47;101460.97;4883069;29;20498;-73
2022/09/21 08:47:20;;;;;;;4.65;3.30;;;;;;;13.26;74.01;101460.69;4889679;29;20064;-73
2022/09/21 08:49:56;;;;;;;6.93;2.97;;;;;;;13.25;74.34;101458.09;4885669;29;20072;-72
2022/09/21 08:52:24;;;;;;;7.15;3.30;;;;;;;13.19;74.59;101463.69;4891219;29;20227;-69
2022/09/21 08:54:58;;;;;;;5.88;3.40;;;;;;;13.10;75.52;101427.63;4882633;29;20052;-76
2022/09/21 08:57:29;;;;;;;6.32;2.63;;;;;;;13.27;75.49;101445.59;4888197;29;20124;-74
2022/09/21 08:59:56;;;;;;;6.57;2.22;;;;;;;13.33;72.99;101445.34;4886990;29;20060;-73
2022/09/21 09:02:31;;;;;;;4.75;2.10;;;;;;;13.45;71.25;101451.94;4892527;29;20049;-72
2022/09/21 09:05:19;;;;;;;7.88;2.20;;;;;;;13.51;70.58;101452.56;4891506;29;20056;-70
2022/09/21 09:08:04;;;;;;;4.88;2.40;;;;;;;13.53;70.02;101453.38;4891603;29;20056;-69
2022/09/21 09:10:55;;;;;;;3.78;2.30;;;;;;;13.53;70.27;101450.72;4884178;29;20050;-73
2022/09/21 09:13:31;;;;;;;5.25;2.42;;;;;;;13.59;70.41;101458.41;4891318;29;20053;-73
2022/09/21 09:16:23;;;;;;;5.80;2.13;;;;;;;13.68;69.64;101435.88;4887193;29;20376;-72
2022/09/21 09:18:53;;;;;;;6.18;2.22;;;;;;;13.78;69.87;101447.84;4885974;29;20069;-74
2022/09/21 09:21:28;;;;;;;5.38;2.38;;;;;;;13.77;68.87;101427.47;4893347;29;20550;-70
2022/09/21 09:24:15;;;;;;;2.55;2.00;;;;;;;13.96;67.33;101447.03;4884013;29;20104;-76
2022/09/21 09:26:48;;;;;;;5.60;2.05;;;;;;;14.07;67.31;101449.22;4887907;29;20136;-73
2022/09/21 09:29:47;;;;;;;3.28;2.10;;;;;;;14.23;67.41;101444.06;4883587;29;20064;-70
2022/09/21 09:32:16;;;;;;;6.07;2.50;;;;;;;14.33;65.51;101432.03;4887327;29;20055;-71
2022/09/21 09:35:15;;;;;;;4.32;1.90;;;;;;;14.39;64.96;101434.44;4887478;29;20521;-69
2022/09/21 09:37:44;;;;;;;3.03;2.15;;;;;;;14.48;64.60;101439.34;4891173;29;20143;-71
2022/09/21 09:40:13;;;;;;;7.78;2.35;;;;;;;14.59;64.25;101436.22;4886191;29;20127;-73
2022/09/21 09:42:53;;;;;;;3.20;2.00;;;;;;;14.61;63.72;101429.00;4888693;29;20048;-72
2022/09/21 09:46:10;;;;;;;5.15;1.83;;;;;;;14.67;64.13;101423.38;4883472;29;20075;-68
2022/09/21 09:49:04;;;;;;;4.75;2.10;;;;;;;14.79;64.05;101436.13;4789071;29;20059;-72
2022/09/21 09:51:34;;;;;;;5.20;2.13;;;;;;;14.74;63.51;101401.69;4790715;29;20050;-75
2022/09/21 09:54:00;;;;;;;5.68;2.03;;;;;;;14.96;63.91;101425.50;4857464;29;20072;-70
2022/09/21 09:56:27;;;;;;;4.60;1.90;;;;;;;15.04;62.82;101427.78;4883385;29;20067;-70
2022/09/21 09:58:58;;;;;;;5.63;1.98;;;;;;;15.08;61.83;101424.91;4885753;29;20045;-71
2022/09/21 10:01:57;;;;;;;3.70;2.00;;;;;;;15.17;62.49;101420.03;4889235;29;20076;-71
2022/09/21 10:04:23;;;;;;;3.17;1.75;;;;;;;15.08;61.91;101402.72;4883532;29;20439;-74
2022/09/21 10:06:50;;;;;;;4.45;1.83;;;;;;;15.17;61.82;101410.25;4885581;29;20482;-69
2022/09/21 10:09:30;;;;;;;3.70;2.38;;;;;;;15.05;62.69;101398.38;4883793;29;20045;-71
2022/09/21 10:12:00;;;;;;;4.22;2.00;;;;;;;15.17;62.36;101406.72;4885586;29;20045;-71
2022/09/21 10:14:33;;;;;;;4.03;2.10;;;;;;;15.23;62.93;101414.41;4882053;29;20202;-69
2022/09/21 10:17:06;;;;;;;5.03;2.30;;;;;;;15.33;62.02;101408.53;4883739;29;20044;-70
2022/09/21 10:19:33;;;;;;;4.00;1.52;;;;;;;15.42;61.77;101408.03;4887367;29;20056;-70
2022/09/21 10:22:02;;;;;;;7.80;2.20;;;;;;;15.48;61.35;101385.53;4889443;29;20503;-68
2022/09/21 10:24:36;;;;;;;4.35;1.63;;;;;;;15.74;60.29;101403.75;4888404;29;20188;-70
2022/09/21 10:27:10;;;;;;;4.57;1.73;;;;;;;15.85;60.67;101399.66;4869574;29;20064;-71
2022/09/21 10:29:45;;;;;;;4.43;1.80;;;;;;;15.96;59.10;101391.94;4889281;29;20139;-72
2022/09/21 10:32:11;;;;;;;3.65;1.70;;;;;;;15.96;58.48;101398.16;4889482;29;20048;-70
2022/09/21 10:34:59;;;;;;;3.17;1.33;;;;;;;15.94;58.88;101393.81;4889710;29;20136;-72
2022/09/21 10:37:28;;;;;;;3.10;1.13;;;;;;;16.04;60.02;101395.94;4886145;29;20123;-69
2022/09/21 10:39:56;;;;;;;3.08;1.55;;;;;;;16.21;58.67;101399.50;4884096;29;20059;-75
2022/09/21 10:42:22;;;;;;;4.85;1.67;;;;;;;16.33;57.47;101391.69;4891701;29;20055;-72
2022/09/21 10:44:52;;;;;;;4.03;1.45;;;;;;;16.18;57.18;101359.59;4889724;29;20175;-76
2022/09/21 10:47:34;;;;;;;2.25;1.20;;;;;;;16.24;56.73;101396.66;4891757;29;20154;-79
2022/09/21 10:50:05;;;;;;;3.85;1.40;;;;;;;16.12;57.10;101388.38;4893945;29;20120;-73
2022/09/21 10:52:40;;;;;;;2.97;1.40;;;;;;;15.91;57.88;101365.47;4895279;29;20131;-72
2022/09/21 10:55:18;;;;;;;3.05;1.38;;;;;;;16.20;57.87;101382.63;4893228;29;20104;-72
2022/09/21 10:57:46;;;;;;;5.15;1.90;;;;;;;16.19;55.93;101361.31;4886712;29;20057;-68
2022/09/21 11:00:28;;;;;;;2.72;1.23;;;;;;;16.37;58.44;101382.53;4891130;29;20572;-68
2022/09/21 11:02:57;;;;;;;4.38;1.27;;;;;;;16.44;56.58;101378.56;4896019;29;20129;-74
2022/09/21 11:05:37;;;;;;;2.75;1.05;;;;;;;16.52;54.42;101385.31;4890343;29;20037;-73
2022/09/21 11:08:03;;;;;;;2.03;0.90;;;;;;;16.55;54.55;101387.78;4887995;29;20045;-70
2022/09/21 11:10:48;;;;;;;3.42;0.90;;;;;;;16.59;54.40;101376.00;4889466;29;20415;-73
2022/09/21 11:13:42;;;;;;;2.30;1.17;;;;;;;16.76;53.71;101379.47;4890883;29;20049;-68
2022/09/21 11:16:12;;;;;;;1.65;0.88;;;;;;;16.82;52.66;101373.78;4876956;29;20049;-69
2022/09/21 11:19:05;;;;;;;4.13;1.25;;;;;;;16.82;53.21;101378.25;4891154;29;20088;-73
2022/09/21 11:22:08;;;;;;;3.38;0.98;;;;;;;16.80;53.37;101370.31;4895005;29;20053;-69
2022/09/21 11:25:03;;;;;;;1.73;0.80;;;;;;;16.78;52.79;101356.19;4889823;29;20143;-71
2022/09/21 11:27:38;;;;;;;4.32;1.35;;;;;;;17.05;52.29;101374.25;4892423;29;20049;-73
2022/09/21 11:30:11;;;;;;;3.58;1.30;;;;;;;17.13;51.71;101375.53;4889694;29;20466;-72
2022/09/21 11:33:17;;;;;;;2.55;1.23;;;;;;;17.13;52.04;101372.00;4898378;29;20116;-72
2022/09/21 11:36:16;;;;;;;3.38;1.40;;;;;;;16.99;51.52;101375.47;4890892;29;20048;-74
2022/09/21 11:39:04;;;;;;;2.58;0.93;;;;;;;16.96;51.89;101366.75;4873747;29;20060;-67
2022/09/21 11:42:19;;;;;;;1.48;0.63;;;;;;;16.83;51.71;101367.47;4890339;29;20056;-72
2022/09/21 11:44:51;;;;;;;1.75;0.82;;;;;;;16.70;51.22;101342.38;4825308;29;20061;-74
2022/09/21 11:48:02;;;;;;;3.40;0.80;;;;;;;16.70;50.96;101336.16;4835959;29;20152;-71
2022/09/21 11:51:00;;;;;;;3.58;0.80;;;;;;;16.75;50.32;101358.16;4880883;29;20044;-75
2022/09/21 11:53:55;;;;;;;1.73;0.80;;;;;;;17.00;50.39;101350.41;4889764;29;20049;-76
2022/09/21 11:56:54;;;;;;;1.90;0.70;;;;;;;17.09;50.26;101349.91;4891962;29;20104;-75